sensor_id;sensor_type;location;lat;lon;timestamp;P1;durP1;ratioP1;P2;durP2;ratioP2
76727;SDS011;65652;53.132;18.026;2023-03-01T00:02:22;42.40;;;16.70;;
76727;SDS011;65652;53.132;18.026;2023-03-01T00:04:48;45.30;;;16.40;;
76727;SDS011;65652;53.132;18.026;2023-03-01T00:07:14;40.70;;;16.90;;
76727;SDS011;65652;53.132;18.026;2023-03-01T00:09:41;40.60;;;17.30;;
76727;SDS011;65652;53.132;18.026;2023-03-01T00:12:07;41.10;;;16.70;;
76727;SDS011;65652;53.132;18.026;2023-03-01T00:14:33;48.80;;;18.20;;
76727;SDS011;65652;53.132;18.026;2023-03-01T00:16:59;44.20;;;17.40;;
76727;SDS011;65652;53.132;18.026;2023-03-01T00:19:26;43.20;;;16.80;;
76727;SDS011;65652;53.132;18.026;2023-03-01T00:21:52;38.00;;;15.80;;
76727;SDS011;65652;53.132;18.026;2023-03-01T00:24:18;45.00;;;16.60;;
76727;SDS011;65652;53.132;18.026;2023-03-01T00:26:44;47.20;;;17.50;;
76727;SDS011;65652;53.132;18.026;2023-03-01T00:29:10;53.30;;;20.50;;
76727;SDS011;65652;53.132;18.026;2023-03-01T00:31:37;55.70;;;20.70;;
76727;SDS011;65652;53.132;18.026;2023-03-01T00:34:05;55.00;;;20.60;;
76727;SDS011;65652;53.132;18.026;2023-03-01T00:36:32;53.80;;;19.30;;
76727;SDS011;65652;53.132;18.026;2023-03-01T00:39:01;58.30;;;20.30;;
76727;SDS011;65652;53.132;18.026;2023-03-01T00:43:56;48.80;;;19.00;;
76727;SDS011;65652;53.132;18.026;2023-03-01T00:46:24;54.40;;;19.40;;
76727;SDS011;65652;53.132;18.026;2023-03-01T00:48:51;51.20;;;19.20;;
76727;SDS011;65652;53.132;18.026;2023-03-01T00:51:19;53.90;;;19.30;;
76727;SDS011;65652;53.132;18.026;2023-03-01T00:53:50;58.70;;;21.20;;
76727;SDS011;65652;53.132;18.026;2023-03-01T00:56:18;55.20;;;21.70;;
76727;SDS011;65652;53.132;18.026;2023-03-01T00:58:44;57.40;;;21.40;;
76727;SDS011;65652;53.132;18.026;2023-03-01T01:01:15;51.70;;;18.80;;
76727;SDS011;65652;53.132;18.026;2023-03-01T01:03:55;50.80;;;19.10;;
76727;SDS011;65652;53.132;18.026;2023-03-01T01:06:24;47.60;;;17.20;;
76727;SDS011;65652;53.132;18.026;2023-03-01T01:08:52;45.20;;;17.50;;
76727;SDS011;65652;53.132;18.026;2023-03-01T01:11:20;45.20;;;16.90;;
76727;SDS011;65652;53.132;18.026;2023-03-01T01:13:47;46.10;;;17.40;;
76727;SDS011;65652;53.132;18.026;2023-03-01T01:16:14;34.00;;;13.60;;
76727;SDS011;65652;53.132;18.026;2023-03-01T01:18:42;42.30;;;16.40;;
76727;SDS011;65652;53.132;18.026;2023-03-01T01:21:10;40.40;;;16.10;;
76727;SDS011;65652;53.132;18.026;2023-03-01T01:23:38;39.20;;;13.90;;
76727;SDS011;65652;53.132;18.026;2023-03-01T01:26:07;37.30;;;14.80;;
76727;SDS011;65652;53.132;18.026;2023-03-01T01:28:35;38.50;;;13.90;;
76727;SDS011;65652;53.132;18.026;2023-03-01T01:31:01;39.40;;;15.70;;
76727;SDS011;65652;53.132;18.026;2023-03-01T01:33:27;36.50;;;14.30;;
76727;SDS011;65652;53.132;18.026;2023-03-01T01:35:54;34.60;;;13.80;;
76727;SDS011;65652;53.132;18.026;2023-03-01T01:38:21;34.30;;;13.20;;
76727;SDS011;65652;53.132;18.026;2023-03-01T01:40:48;32.40;;;13.40;;
76727;SDS011;65652;53.132;18.026;2023-03-01T01:43:20;35.60;;;13.40;;
76727;SDS011;65652;53.132;18.026;2023-03-01T01:45:50;40.80;;;15.90;;
76727;SDS011;65652;53.132;18.026;2023-03-01T01:48:21;41.40;;;15.70;;
76727;SDS011;65652;53.132;18.026;2023-03-01T01:50:51;44.40;;;15.90;;
76727;SDS011;65652;53.132;18.026;2023-03-01T01:53:26;42.60;;;14.80;;
76727;SDS011;65652;53.132;18.026;2023-03-01T01:55:55;41.60;;;16.40;;
76727;SDS011;65652;53.132;18.026;2023-03-01T01:58:26;43.50;;;16.80;;
76727;SDS011;65652;53.132;18.026;2023-03-01T02:00:55;41.80;;;15.70;;
76727;SDS011;65652;53.132;18.026;2023-03-01T02:03:23;45.00;;;16.70;;
76727;SDS011;65652;53.132;18.026;2023-03-01T02:06:03;48.60;;;18.30;;
76727;SDS011;65652;53.132;18.026;2023-03-01T02:08:33;56.50;;;20.20;;
76727;SDS011;65652;53.132;18.026;2023-03-01T02:11:03;54.60;;;19.50;;
76727;SDS011;65652;53.132;18.026;2023-03-01T02:13:30;54.80;;;19.00;;
76727;SDS011;65652;53.132;18.026;2023-03-01T02:15:58;51.80;;;19.10;;
76727;SDS011;65652;53.132;18.026;2023-03-01T02:18:27;51.50;;;18.70;;
76727;SDS011;65652;53.132;18.026;2023-03-01T02:26:35;48.30;;;17.40;;
76727;SDS011;65652;53.132;18.026;2023-03-01T02:29:03;47.80;;;18.20;;
76727;SDS011;65652;53.132;18.026;2023-03-01T02:31:31;44.60;;;17.50;;
76727;SDS011;65652;53.132;18.026;2023-03-01T02:34:16;46.60;;;16.10;;
76727;SDS011;65652;53.132;18.026;2023-03-01T02:36:47;44.20;;;17.20;;
76727;SDS011;65652;53.132;18.026;2023-03-01T02:42:26;36.80;;;15.70;;
76727;SDS011;65652;53.132;18.026;2023-03-01T02:44:57;41.40;;;16.00;;
76727;SDS011;65652;53.132;18.026;2023-03-01T02:47:23;39.70;;;15.40;;
76727;SDS011;65652;53.132;18.026;2023-03-01T02:49:50;21.40;;;8.10;;
76727;SDS011;65652;53.132;18.026;2023-03-01T02:52:22;40.40;;;15.00;;
76727;SDS011;65652;53.132;18.026;2023-03-01T02:54:52;42.90;;;16.00;;
76727;SDS011;65652;53.132;18.026;2023-03-01T02:57:22;37.90;;;14.50;;
76727;SDS011;65652;53.132;18.026;2023-03-01T02:59:51;37.40;;;14.10;;
76727;SDS011;65652;53.132;18.026;2023-03-01T03:02:28;35.70;;;15.30;;
76727;SDS011;65652;53.132;18.026;2023-03-01T03:05:09;42.30;;;15.20;;
76727;SDS011;65652;53.132;18.026;2023-03-01T03:07:42;42.70;;;15.40;;
76727;SDS011;65652;53.132;18.026;2023-03-01T03:10:18;42.30;;;16.10;;
76727;SDS011;65652;53.132;18.026;2023-03-01T03:12:57;41.40;;;15.70;;
76727;SDS011;65652;53.132;18.026;2023-03-01T03:15:26;32.50;;;12.20;;
76727;SDS011;65652;53.132;18.026;2023-03-01T03:17:55;42.40;;;15.60;;
76727;SDS011;65652;53.132;18.026;2023-03-01T03:20:24;37.90;;;12.20;;
76727;SDS011;65652;53.132;18.026;2023-03-01T03:22:52;41.20;;;13.90;;
76727;SDS011;65652;53.132;18.026;2023-03-01T03:25:20;39.30;;;15.20;;
76727;SDS011;65652;53.132;18.026;2023-03-01T03:27:47;37.30;;;15.00;;
76727;SDS011;65652;53.132;18.026;2023-03-01T03:30:23;36.20;;;14.50;;
76727;SDS011;65652;53.132;18.026;2023-03-01T03:32:57;39.90;;;13.80;;
76727;SDS011;65652;53.132;18.026;2023-03-01T03:35:25;35.90;;;13.90;;
76727;SDS011;65652;53.132;18.026;2023-03-01T03:37:56;40.00;;;14.90;;
76727;SDS011;65652;53.132;18.026;2023-03-01T03:40:33;37.30;;;14.40;;
76727;SDS011;65652;53.132;18.026;2023-03-01T03:43:07;40.10;;;13.60;;
76727;SDS011;65652;53.132;18.026;2023-03-01T03:45:36;37.30;;;12.70;;
76727;SDS011;65652;53.132;18.026;2023-03-01T03:48:03;33.40;;;12.20;;
76727;SDS011;65652;53.132;18.026;2023-03-01T03:50:31;30.70;;;12.10;;
76727;SDS011;65652;53.132;18.026;2023-03-01T03:53:00;29.60;;;11.00;;
76727;SDS011;65652;53.132;18.026;2023-03-01T03:55:27;29.20;;;10.10;;
76727;SDS011;65652;53.132;18.026;2023-03-01T03:57:59;29.00;;;10.70;;
76727;SDS011;65652;53.132;18.026;2023-03-01T04:00:28;27.80;;;10.30;;
76727;SDS011;65652;53.132;18.026;2023-03-01T04:02:54;27.90;;;10.80;;
76727;SDS011;65652;53.132;18.026;2023-03-01T04:05:22;27.40;;;10.80;;
76727;SDS011;65652;53.132;18.026;2023-03-01T04:07:49;25.80;;;10.50;;
76727;SDS011;65652;53.132;18.026;2023-03-01T04:10:18;27.60;;;10.10;;
76727;SDS011;65652;53.132;18.026;2023-03-01T04:12:44;28.30;;;11.30;;
76727;SDS011;65652;53.132;18.026;2023-03-01T04:15:11;28.10;;;10.30;;
76727;SDS011;65652;53.132;18.026;2023-03-01T04:17:41;26.60;;;10.50;;
76727;SDS011;65652;53.132;18.026;2023-03-01T04:20:09;29.00;;;10.20;;
76727;SDS011;65652;53.132;18.026;2023-03-01T04:22:37;26.70;;;10.40;;
76727;SDS011;65652;53.132;18.026;2023-03-01T04:25:04;25.00;;;11.00;;
76727;SDS011;65652;53.132;18.026;2023-03-01T04:27:35;26.60;;;11.10;;
76727;SDS011;65652;53.132;18.026;2023-03-01T04:30:02;25.90;;;11.30;;
76727;SDS011;65652;53.132;18.026;2023-03-01T04:32:29;29.60;;;11.60;;
76727;SDS011;65652;53.132;18.026;2023-03-01T04:34:55;29.20;;;10.90;;
76727;SDS011;65652;53.132;18.026;2023-03-01T04:37:21;27.00;;;11.20;;
76727;SDS011;65652;53.132;18.026;2023-03-01T04:39:47;28.40;;;11.00;;
76727;SDS011;65652;53.132;18.026;2023-03-01T04:42:14;26.80;;;10.40;;
76727;SDS011;65652;53.132;18.026;2023-03-01T04:44:42;27.00;;;10.30;;
76727;SDS011;65652;53.132;18.026;2023-03-01T04:47:09;29.30;;;11.10;;
76727;SDS011;65652;53.132;18.026;2023-03-01T04:49:35;26.60;;;10.30;;
76727;SDS011;65652;53.132;18.026;2023-03-01T04:52:02;26.60;;;10.90;;
76727;SDS011;65652;53.132;18.026;2023-03-01T04:54:32;25.80;;;10.00;;
76727;SDS011;65652;53.132;18.026;2023-03-01T04:57:00;28.40;;;11.70;;
76727;SDS011;65652;53.132;18.026;2023-03-01T04:59:27;27.00;;;11.00;;
76727;SDS011;65652;53.132;18.026;2023-03-01T05:01:54;27.70;;;11.10;;
76727;SDS011;65652;53.132;18.026;2023-03-01T05:04:21;28.50;;;10.10;;
76727;SDS011;65652;53.132;18.026;2023-03-01T05:06:48;24.90;;;10.70;;
76727;SDS011;65652;53.132;18.026;2023-03-01T05:09:14;26.60;;;10.50;;
76727;SDS011;65652;53.132;18.026;2023-03-01T05:11:41;28.50;;;11.80;;
76727;SDS011;65652;53.132;18.026;2023-03-01T05:14:08;26.90;;;10.30;;
76727;SDS011;65652;53.132;18.026;2023-03-01T05:16:35;27.00;;;10.10;;
76727;SDS011;65652;53.132;18.026;2023-03-01T05:19:03;25.20;;;9.70;;
76727;SDS011;65652;53.132;18.026;2023-03-01T05:21:37;28.00;;;10.50;;
76727;SDS011;65652;53.132;18.026;2023-03-01T05:24:27;28.20;;;9.80;;
76727;SDS011;65652;53.132;18.026;2023-03-01T05:26:54;29.20;;;10.80;;
76727;SDS011;65652;53.132;18.026;2023-03-01T05:29:21;27.70;;;10.90;;
76727;SDS011;65652;53.132;18.026;2023-03-01T05:31:57;25.80;;;10.50;;
76727;SDS011;65652;53.132;18.026;2023-03-01T05:34:25;27.70;;;9.80;;
76727;SDS011;65652;53.132;18.026;2023-03-01T05:36:52;30.80;;;11.20;;
76727;SDS011;65652;53.132;18.026;2023-03-01T05:39:19;24.00;;;11.10;;
76727;SDS011;65652;53.132;18.026;2023-03-01T05:41:47;30.30;;;12.20;;
76727;SDS011;65652;53.132;18.026;2023-03-01T05:44:13;31.60;;;12.60;;
76727;SDS011;65652;53.132;18.026;2023-03-01T05:46:40;34.60;;;12.30;;
76727;SDS011;65652;53.132;18.026;2023-03-01T05:49:06;32.40;;;13.30;;
76727;SDS011;65652;53.132;18.026;2023-03-01T05:51:32;34.10;;;13.10;;
76727;SDS011;65652;53.132;18.026;2023-03-01T05:53:59;28.00;;;12.00;;
76727;SDS011;65652;53.132;18.026;2023-03-01T05:56:25;35.70;;;12.90;;
76727;SDS011;65652;53.132;18.026;2023-03-01T05:58:52;32.40;;;13.50;;
76727;SDS011;65652;53.132;18.026;2023-03-01T06:01:18;44.30;;;15.00;;
76727;SDS011;65652;53.132;18.026;2023-03-01T06:03:44;41.00;;;14.20;;
76727;SDS011;65652;53.132;18.026;2023-03-01T06:06:10;26.90;;;10.80;;
76727;SDS011;65652;53.132;18.026;2023-03-01T06:08:36;28.20;;;11.10;;
76727;SDS011;65652;53.132;18.026;2023-03-01T06:11:02;32.50;;;12.20;;
76727;SDS011;65652;53.132;18.026;2023-03-01T06:13:29;42.70;;;14.60;;
76727;SDS011;65652;53.132;18.026;2023-03-01T06:15:55;39.40;;;16.00;;
76727;SDS011;65652;53.132;18.026;2023-03-01T06:18:21;42.40;;;15.60;;
76727;SDS011;65652;53.132;18.026;2023-03-01T06:20:54;37.60;;;14.20;;
76727;SDS011;65652;53.132;18.026;2023-03-01T06:23:21;47.50;;;16.10;;
76727;SDS011;65652;53.132;18.026;2023-03-01T06:25:48;40.80;;;16.40;;
76727;SDS011;65652;53.132;18.026;2023-03-01T06:28:15;41.60;;;16.90;;
76727;SDS011;65652;53.132;18.026;2023-03-01T06:30:41;40.30;;;15.60;;
76727;SDS011;65652;53.132;18.026;2023-03-01T06:33:08;41.80;;;15.60;;
76727;SDS011;65652;53.132;18.026;2023-03-01T06:35:34;44.20;;;17.30;;
76727;SDS011;65652;53.132;18.026;2023-03-01T06:38:01;41.70;;;14.90;;
76727;SDS011;65652;53.132;18.026;2023-03-01T06:40:29;41.10;;;17.00;;
76727;SDS011;65652;53.132;18.026;2023-03-01T06:42:57;40.00;;;15.00;;
76727;SDS011;65652;53.132;18.026;2023-03-01T06:45:23;36.20;;;13.00;;
76727;SDS011;65652;53.132;18.026;2023-03-01T06:47:50;28.50;;;11.80;;
76727;SDS011;65652;53.132;18.026;2023-03-01T06:50:17;39.30;;;15.50;;
76727;SDS011;65652;53.132;18.026;2023-03-01T06:52:44;39.30;;;14.30;;
76727;SDS011;65652;53.132;18.026;2023-03-01T06:55:11;27.20;;;10.70;;
76727;SDS011;65652;53.132;18.026;2023-03-01T06:57:39;30.10;;;12.20;;
76727;SDS011;65652;53.132;18.026;2023-03-01T07:00:05;27.60;;;12.00;;
76727;SDS011;65652;53.132;18.026;2023-03-01T07:02:32;31.90;;;12.60;;
76727;SDS011;65652;53.132;18.026;2023-03-01T07:04:58;33.60;;;13.20;;
76727;SDS011;65652;53.132;18.026;2023-03-01T07:07:25;31.80;;;13.80;;
76727;SDS011;65652;53.132;18.026;2023-03-01T07:09:51;28.80;;;12.10;;
76727;SDS011;65652;53.132;18.026;2023-03-01T07:12:18;29.00;;;12.10;;
76727;SDS011;65652;53.132;18.026;2023-03-01T07:14:45;29.40;;;11.30;;
76727;SDS011;65652;53.132;18.026;2023-03-01T07:17:11;34.50;;;11.50;;
76727;SDS011;65652;53.132;18.026;2023-03-01T07:19:37;33.50;;;14.10;;
76727;SDS011;65652;53.132;18.026;2023-03-01T07:22:03;28.60;;;10.70;;
76727;SDS011;65652;53.132;18.026;2023-03-01T07:24:30;36.50;;;14.60;;
76727;SDS011;65652;53.132;18.026;2023-03-01T07:26:56;35.70;;;14.30;;
76727;SDS011;65652;53.132;18.026;2023-03-01T07:29:22;35.90;;;15.00;;
76727;SDS011;65652;53.132;18.026;2023-03-01T07:31:48;34.70;;;13.10;;
76727;SDS011;65652;53.132;18.026;2023-03-01T07:34:14;32.10;;;12.90;;
76727;SDS011;65652;53.132;18.026;2023-03-01T07:36:40;25.30;;;9.60;;
76727;SDS011;65652;53.132;18.026;2023-03-01T07:39:09;21.70;;;8.20;;
76727;SDS011;65652;53.132;18.026;2023-03-01T07:41:36;27.80;;;11.40;;
76727;SDS011;65652;53.132;18.026;2023-03-01T07:44:02;30.80;;;11.00;;
76727;SDS011;65652;53.132;18.026;2023-03-01T07:46:28;27.70;;;9.80;;
76727;SDS011;65652;53.132;18.026;2023-03-01T07:48:54;30.40;;;11.20;;
76727;SDS011;65652;53.132;18.026;2023-03-01T07:51:21;27.10;;;10.50;;
76727;SDS011;65652;53.132;18.026;2023-03-01T07:53:47;24.90;;;9.50;;
76727;SDS011;65652;53.132;18.026;2023-03-01T07:56:14;26.50;;;11.30;;
76727;SDS011;65652;53.132;18.026;2023-03-01T07:58:44;31.10;;;12.60;;
76727;SDS011;65652;53.132;18.026;2023-03-01T08:01:12;28.40;;;10.00;;
76727;SDS011;65652;53.132;18.026;2023-03-01T08:03:43;26.50;;;11.40;;
76727;SDS011;65652;53.132;18.026;2023-03-01T08:06:10;22.80;;;10.00;;
76727;SDS011;65652;53.132;18.026;2023-03-01T08:08:37;36.60;;;13.60;;
76727;SDS011;65652;53.132;18.026;2023-03-01T08:11:04;23.50;;;9.00;;
76727;SDS011;65652;53.132;18.026;2023-03-01T08:13:32;27.40;;;10.80;;
76727;SDS011;65652;53.132;18.026;2023-03-01T08:16:17;24.50;;;9.60;;
76727;SDS011;65652;53.132;18.026;2023-03-01T08:18:43;25.50;;;11.40;;
76727;SDS011;65652;53.132;18.026;2023-03-01T08:21:11;26.30;;;11.00;;
76727;SDS011;65652;53.132;18.026;2023-03-01T08:23:39;25.00;;;12.00;;
76727;SDS011;65652;53.132;18.026;2023-03-01T08:26:07;28.10;;;12.70;;
76727;SDS011;65652;53.132;18.026;2023-03-01T08:28:39;28.20;;;12.20;;
76727;SDS011;65652;53.132;18.026;2023-03-01T08:31:19;26.20;;;12.60;;
76727;SDS011;65652;53.132;18.026;2023-03-01T08:33:48;26.80;;;10.80;;
76727;SDS011;65652;53.132;18.026;2023-03-01T08:36:16;25.60;;;12.40;;
76727;SDS011;65652;53.132;18.026;2023-03-01T08:38:43;25.40;;;10.90;;
76727;SDS011;65652;53.132;18.026;2023-03-01T08:41:09;26.00;;;10.30;;
76727;SDS011;65652;53.132;18.026;2023-03-01T08:43:36;30.60;;;13.80;;
76727;SDS011;65652;53.132;18.026;2023-03-01T08:46:02;27.50;;;12.50;;
76727;SDS011;65652;53.132;18.026;2023-03-01T08:48:28;30.40;;;13.70;;
76727;SDS011;65652;53.132;18.026;2023-03-01T08:50:55;29.90;;;12.90;;
76727;SDS011;65652;53.132;18.026;2023-03-01T08:53:21;26.00;;;11.80;;
76727;SDS011;65652;53.132;18.026;2023-03-01T08:55:47;27.30;;;13.20;;
76727;SDS011;65652;53.132;18.026;2023-03-01T08:58:14;27.90;;;12.10;;
76727;SDS011;65652;53.132;18.026;2023-03-01T09:00:40;27.30;;;12.00;;
76727;SDS011;65652;53.132;18.026;2023-03-01T09:03:06;25.30;;;10.30;;
76727;SDS011;65652;53.132;18.026;2023-03-01T09:05:32;30.40;;;12.30;;
76727;SDS011;65652;53.132;18.026;2023-03-01T09:08:00;30.40;;;12.70;;
76727;SDS011;65652;53.132;18.026;2023-03-01T09:10:26;28.90;;;11.70;;
76727;SDS011;65652;53.132;18.026;2023-03-01T09:12:52;28.10;;;13.10;;
76727;SDS011;65652;53.132;18.026;2023-03-01T09:15:18;33.40;;;16.10;;
76727;SDS011;65652;53.132;18.026;2023-03-01T09:17:44;26.50;;;11.20;;
76727;SDS011;65652;53.132;18.026;2023-03-01T09:20:11;23.70;;;11.60;;
76727;SDS011;65652;53.132;18.026;2023-03-01T09:22:37;32.00;;;12.90;;
76727;SDS011;65652;53.132;18.026;2023-03-01T09:25:03;23.70;;;11.30;;
76727;SDS011;65652;53.132;18.026;2023-03-01T09:27:30;27.10;;;12.80;;
76727;SDS011;65652;53.132;18.026;2023-03-01T09:29:56;30.20;;;13.90;;
76727;SDS011;65652;53.132;18.026;2023-03-01T09:32:22;27.00;;;13.20;;
76727;SDS011;65652;53.132;18.026;2023-03-01T09:34:48;26.00;;;11.70;;
76727;SDS011;65652;53.132;18.026;2023-03-01T09:37:26;30.00;;;12.40;;
76727;SDS011;65652;53.132;18.026;2023-03-01T09:39:52;28.20;;;13.80;;
76727;SDS011;65652;53.132;18.026;2023-03-01T09:42:19;21.90;;;11.00;;
76727;SDS011;65652;53.132;18.026;2023-03-01T09:44:47;27.40;;;12.10;;
76727;SDS011;65652;53.132;18.026;2023-03-01T09:47:17;26.90;;;12.20;;
76727;SDS011;65652;53.132;18.026;2023-03-01T09:49:51;21.80;;;10.10;;
76727;SDS011;65652;53.132;18.026;2023-03-01T09:52:41;29.00;;;12.30;;
76727;SDS011;65652;53.132;18.026;2023-03-01T09:55:16;24.10;;;11.40;;
76727;SDS011;65652;53.132;18.026;2023-03-01T09:58:05;26.70;;;12.10;;
76727;SDS011;65652;53.132;18.026;2023-03-01T10:00:57;18.40;;;8.80;;
76727;SDS011;65652;53.132;18.026;2023-03-01T10:11:24;24.40;;;9.80;;
76727;SDS011;65652;53.132;18.026;2023-03-01T10:14:09;20.70;;;8.60;;
76727;SDS011;65652;53.132;18.026;2023-03-01T10:16:57;21.20;;;9.30;;
76727;SDS011;65652;53.132;18.026;2023-03-01T10:22:13;20.50;;;10.80;;
76727;SDS011;65652;53.132;18.026;2023-03-01T10:24:47;21.70;;;10.80;;
76727;SDS011;65652;53.132;18.026;2023-03-01T10:30:22;21.90;;;8.60;;
76727;SDS011;65652;53.132;18.026;2023-03-01T10:33:00;19.50;;;8.10;;
76727;SDS011;65652;53.132;18.026;2023-03-01T10:35:28;19.10;;;9.50;;
76727;SDS011;65652;53.132;18.026;2023-03-01T10:40:29;20.00;;;9.60;;
76727;SDS011;65652;53.132;18.026;2023-03-01T10:43:00;17.80;;;8.10;;
76727;SDS011;65652;53.132;18.026;2023-03-01T10:45:35;18.90;;;7.80;;
76727;SDS011;65652;53.132;18.026;2023-03-01T10:50:42;16.50;;;8.10;;
76727;SDS011;65652;53.132;18.026;2023-03-01T10:53:22;19.60;;;8.90;;
76727;SDS011;65652;53.132;18.026;2023-03-01T10:58:35;22.30;;;9.90;;
76727;SDS011;65652;53.132;18.026;2023-03-01T11:01:04;19.20;;;8.90;;
76727;SDS011;65652;53.132;18.026;2023-03-01T11:03:33;22.30;;;9.90;;
76727;SDS011;65652;53.132;18.026;2023-03-01T11:08:40;15.60;;;6.10;;
76727;SDS011;65652;53.132;18.026;2023-03-01T11:13:35;16.70;;;7.50;;
76727;SDS011;65652;53.132;18.026;2023-03-01T11:16:10;18.50;;;8.40;;
76727;SDS011;65652;53.132;18.026;2023-03-01T11:18:38;13.90;;;7.20;;
76727;SDS011;65652;53.132;18.026;2023-03-01T11:21:04;16.40;;;7.90;;
76727;SDS011;65652;53.132;18.026;2023-03-01T11:23:34;17.20;;;8.10;;
76727;SDS011;65652;53.132;18.026;2023-03-01T11:26:05;16.50;;;8.00;;
76727;SDS011;65652;53.132;18.026;2023-03-01T11:28:35;15.10;;;7.90;;
76727;SDS011;65652;53.132;18.026;2023-03-01T11:31:09;19.20;;;8.80;;
76727;SDS011;65652;53.132;18.026;2023-03-01T11:33:43;14.00;;;7.50;;
76727;SDS011;65652;53.132;18.026;2023-03-01T11:39:49;16.10;;;7.20;;
76727;SDS011;65652;53.132;18.026;2023-03-01T11:42:24;16.00;;;6.60;;
76727;SDS011;65652;53.132;18.026;2023-03-01T11:45:15;15.60;;;7.70;;
76727;SDS011;65652;53.132;18.026;2023-03-01T11:50:40;16.00;;;7.10;;
76727;SDS011;65652;53.132;18.026;2023-03-01T11:55:58;12.70;;;6.40;;
76727;SDS011;65652;53.132;18.026;2023-03-01T11:59:02;15.60;;;6.40;;
76727;SDS011;65652;53.132;18.026;2023-03-01T12:13:02;12.90;;;5.60;;
76727;SDS011;65652;53.132;18.026;2023-03-01T12:21:34;11.30;;;4.70;;
76727;SDS011;65652;53.132;18.026;2023-03-01T12:26:47;13.70;;;6.00;;
76727;SDS011;65652;53.132;18.026;2023-03-01T12:29:42;13.50;;;6.40;;
76727;SDS011;65652;53.132;18.026;2023-03-01T12:37:56;13.60;;;6.00;;
76727;SDS011;65652;53.132;18.026;2023-03-01T12:40:51;15.60;;;6.80;;
76727;SDS011;65652;53.132;18.026;2023-03-01T12:52:03;17.00;;;7.10;;
76727;SDS011;65652;53.132;18.026;2023-03-01T12:54:38;15.20;;;6.70;;
76727;SDS011;65652;53.132;18.026;2023-03-01T12:59:38;16.40;;;6.50;;
76727;SDS011;65652;53.132;18.026;2023-03-01T13:02:25;13.80;;;5.70;;
76727;SDS011;65652;53.132;18.026;2023-03-01T13:05:06;11.30;;;4.60;;
76727;SDS011;65652;53.132;18.026;2023-03-01T13:10:15;15.70;;;6.10;;
76727;SDS011;65652;53.132;18.026;2023-03-01T13:13:01;13.70;;;6.90;;
76727;SDS011;65652;53.132;18.026;2023-03-01T13:15:36;13.70;;;6.60;;
76727;SDS011;65652;53.132;18.026;2023-03-01T13:23:11;15.70;;;6.60;;
76727;SDS011;65652;53.132;18.026;2023-03-01T13:31:01;14.20;;;6.10;;
76727;SDS011;65652;53.132;18.026;2023-03-01T13:35:56;12.40;;;6.00;;
76727;SDS011;65652;53.132;18.026;2023-03-01T13:41:16;13.20;;;6.30;;
76727;SDS011;65652;53.132;18.026;2023-03-01T13:44:02;12.00;;;5.20;;
76727;SDS011;65652;53.132;18.026;2023-03-01T13:46:46;11.40;;;5.60;;
76727;SDS011;65652;53.132;18.026;2023-03-01T13:49:14;13.60;;;5.90;;
76727;SDS011;65652;53.132;18.026;2023-03-01T13:51:47;14.30;;;6.60;;
76727;SDS011;65652;53.132;18.026;2023-03-01T13:54:16;15.90;;;6.50;;
76727;SDS011;65652;53.132;18.026;2023-03-01T13:56:43;14.50;;;6.70;;
76727;SDS011;65652;53.132;18.026;2023-03-01T13:59:14;12.90;;;6.20;;
76727;SDS011;65652;53.132;18.026;2023-03-01T14:01:43;13.20;;;6.80;;
76727;SDS011;65652;53.132;18.026;2023-03-01T14:06:49;12.60;;;6.10;;
76727;SDS011;65652;53.132;18.026;2023-03-01T14:09:20;13.90;;;8.00;;
76727;SDS011;65652;53.132;18.026;2023-03-01T14:11:54;14.80;;;7.10;;
76727;SDS011;65652;53.132;18.026;2023-03-01T14:20:24;14.40;;;6.50;;
76727;SDS011;65652;53.132;18.026;2023-03-01T14:22:57;13.80;;;6.30;;
76727;SDS011;65652;53.132;18.026;2023-03-01T14:25:32;14.10;;;7.20;;
76727;SDS011;65652;53.132;18.026;2023-03-01T14:28:10;16.10;;;7.50;;
76727;SDS011;65652;53.132;18.026;2023-03-01T14:30:48;14.40;;;7.00;;
76727;SDS011;65652;53.132;18.026;2023-03-01T14:36:00;12.10;;;6.50;;
76727;SDS011;65652;53.132;18.026;2023-03-01T14:40:59;14.30;;;6.80;;
76727;SDS011;65652;53.132;18.026;2023-03-01T14:43:29;15.90;;;6.70;;
76727;SDS011;65652;53.132;18.026;2023-03-01T14:45:57;15.60;;;7.00;;
76727;SDS011;65652;53.132;18.026;2023-03-01T14:48:23;13.00;;;5.40;;
76727;SDS011;65652;53.132;18.026;2023-03-01T14:50:50;13.60;;;6.90;;
76727;SDS011;65652;53.132;18.026;2023-03-01T14:55:46;15.10;;;7.40;;
76727;SDS011;65652;53.132;18.026;2023-03-01T14:58:15;14.80;;;6.90;;
76727;SDS011;65652;53.132;18.026;2023-03-01T15:00:55;17.20;;;7.00;;
76727;SDS011;65652;53.132;18.026;2023-03-01T15:03:37;17.00;;;7.90;;
76727;SDS011;65652;53.132;18.026;2023-03-01T15:06:09;15.80;;;7.60;;
76727;SDS011;65652;53.132;18.026;2023-03-01T15:08:41;13.40;;;6.30;;
76727;SDS011;65652;53.132;18.026;2023-03-01T15:13:39;16.70;;;7.30;;
76727;SDS011;65652;53.132;18.026;2023-03-01T15:16:08;16.00;;;7.50;;
76727;SDS011;65652;53.132;18.026;2023-03-01T15:18:43;16.00;;;7.00;;
76727;SDS011;65652;53.132;18.026;2023-03-01T15:21:22;13.40;;;5.50;;
76727;SDS011;65652;53.132;18.026;2023-03-01T15:23:51;15.90;;;6.80;;
76727;SDS011;65652;53.132;18.026;2023-03-01T15:26:24;16.40;;;7.20;;
76727;SDS011;65652;53.132;18.026;2023-03-01T15:28:57;17.30;;;7.20;;
76727;SDS011;65652;53.132;18.026;2023-03-01T15:31:28;17.70;;;7.50;;
76727;SDS011;65652;53.132;18.026;2023-03-01T15:34:08;20.70;;;7.80;;
76727;SDS011;65652;53.132;18.026;2023-03-01T15:36:39;19.40;;;7.80;;
76727;SDS011;65652;53.132;18.026;2023-03-01T15:41:57;16.20;;;8.10;;
76727;SDS011;65652;53.132;18.026;2023-03-01T15:44:32;17.70;;;6.70;;
76727;SDS011;65652;53.132;18.026;2023-03-01T15:47:01;16.70;;;7.10;;
76727;SDS011;65652;53.132;18.026;2023-03-01T15:52:03;14.40;;;6.20;;
76727;SDS011;65652;53.132;18.026;2023-03-01T15:54:31;20.30;;;9.20;;
76727;SDS011;65652;53.132;18.026;2023-03-01T15:56:57;19.90;;;8.90;;
76727;SDS011;65652;53.132;18.026;2023-03-01T15:59:24;12.30;;;6.40;;
76727;SDS011;65652;53.132;18.026;2023-03-01T16:01:50;13.10;;;6.10;;
76727;SDS011;65652;53.132;18.026;2023-03-01T16:04:17;13.30;;;6.00;;
76727;SDS011;65652;53.132;18.026;2023-03-01T16:06:52;10.30;;;5.10;;
76727;SDS011;65652;53.132;18.026;2023-03-01T16:09:23;14.10;;;6.60;;
76727;SDS011;65652;53.132;18.026;2023-03-01T16:14:17;14.90;;;6.00;;
76727;SDS011;65652;53.132;18.026;2023-03-01T16:16:44;16.20;;;6.60;;
76727;SDS011;65652;53.132;18.026;2023-03-01T16:19:11;20.60;;;9.50;;
76727;SDS011;65652;53.132;18.026;2023-03-01T16:21:37;20.30;;;9.50;;
76727;SDS011;65652;53.132;18.026;2023-03-01T16:24:04;38.50;;;17.20;;
76727;SDS011;65652;53.132;18.026;2023-03-01T16:26:30;38.70;;;17.70;;
76727;SDS011;65652;53.132;18.026;2023-03-01T16:28:57;32.70;;;14.50;;
76727;SDS011;65652;53.132;18.026;2023-03-01T16:31:24;31.60;;;15.00;;
76727;SDS011;65652;53.132;18.026;2023-03-01T16:33:53;33.70;;;14.80;;
76727;SDS011;65652;53.132;18.026;2023-03-01T16:36:21;41.10;;;14.40;;
76727;SDS011;65652;53.132;18.026;2023-03-01T16:38:50;40.10;;;16.60;;